sensor_id;sensor_type;location;lat;lon;timestamp;pressure;altitude;pressure_sealevel;temperature;humidity
76024;BME280;64719;52.124;6.226;2023-05-10T00:00:46;100960.50;;;12.42;100.00
76024;BME280;64719;52.124;6.226;2023-05-10T00:03:12;100969.16;;;12.39;100.00
76024;BME280;64719;52.124;6.226;2023-05-10T00:05:39;100965.34;;;12.40;100.00
76024;BME280;64719;52.124;6.226;2023-05-10T00:08:06;100954.22;;;12.42;100.00
76024;BME280;64719;52.124;6.226;2023-05-10T00:10:32;100950.91;;;12.40;100.00
76024;BME280;64719;52.124;6.226;2023-05-10T00:12:59;100952.47;;;12.36;100.00
76024;BME280;64719;52.124;6.226;2023-05-10T00:15:27;100953.88;;;12.38;100.00
76024;BME280;64719;52.124;6.226;2023-05-10T00:17:53;100944.19;;;12.42;100.00
76024;BME280;64719;52.124;6.226;2023-05-10T00:20:20;100943.81;;;12.39;100.00
76024;BME280;64719;52.124;6.226;2023-05-10T00:22:46;100952.22;;;12.37;100.00
76024;BME280;64719;52.124;6.226;2023-05-10T00:25:13;100946.56;;;12.39;100.00
76024;BME280;64719;52.124;6.226;2023-05-10T00:27:39;100940.50;;;12.37;100.00
76024;BME280;64719;52.124;6.226;2023-05-10T00:30:07;100940.75;;;12.35;100.00
76024;BME280;64719;52.124;6.226;2023-05-10T00:32:35;100938.38;;;12.39;100.00
76024;BME280;64719;52.124;6.226;2023-05-10T00:35:01;100937.56;;;12.38;100.00
76024;BME280;64719;52.124;6.226;2023-05-10T00:37:28;100934.81;;;12.38;100.00
76024;BME280;64719;52.124;6.226;2023-05-10T00:39:54;100940.28;;;12.38;100.00
76024;BME280;64719;52.124;6.226;2023-05-10T00:42:21;100938.38;;;12.39;100.00
76024;BME280;64719;52.124;6.226;2023-05-10T00:44:47;100941.59;;;12.36;100.00
76024;BME280;64719;52.124;6.226;2023-05-10T00:47:14;100934.03;;;12.38;100.00
76024;BME280;64719;52.124;6.226;2023-05-10T00:49:43;100940.75;;;12.35;100.00
76024;BME280;64719;52.124;6.226;2023-05-10T00:52:10;100935.91;;;12.37;100.00
76024;BME280;64719;52.124;6.226;2023-05-10T00:54:37;100941.09;;;12.39;100.00
76024;BME280;64719;52.124;6.226;2023-05-10T00:57:03;100935.66;;;12.39;100.00
76024;BME280;64719;52.124;6.226;2023-05-10T00:59:30;100929.06;;;12.35;100.00
76024;BME280;64719;52.124;6.226;2023-05-10T01:01:57;100943.22;;;12.37;100.00
76024;BME280;64719;52.124;6.226;2023-05-10T01:04:24;100937.56;;;12.38;100.00
76024;BME280;64719;52.124;6.226;2023-05-10T01:06:53;100940.28;;;12.38;100.00
76024;BME280;64719;52.124;6.226;2023-05-10T01:09:19;100934.81;;;12.38;100.00
76024;BME280;64719;52.124;6.226;2023-05-10T01:11:46;100933.78;;;12.39;100.00
76024;BME280;64719;52.124;6.226;2023-05-10T01:14:13;100935.44;;;12.40;100.00
76024;BME280;64719;52.124;6.226;2023-05-10T01:16:41;100934.34;;;12.41;100.00
76024;BME280;64719;52.124;6.226;2023-05-10T01:19:12;100934.09;;;12.43;100.00
76024;BME280;64719;52.124;6.226;2023-05-10T01:21:49;100939.31;;;12.44;100.00
76024;BME280;64719;52.124;6.226;2023-05-10T01:24:44;100945.00;;;12.43;100.00
76024;BME280;64719;52.124;6.226;2023-05-10T01:27:37;100938.25;;;12.45;100.00
76024;BME280;64719;52.124;6.226;2023-05-10T01:30:31;100939.91;;;12.46;100.00
76024;BME280;64719;52.124;6.226;2023-05-10T01:33:10;100939.91;;;12.46;100.00
76024;BME280;64719;52.124;6.226;2023-05-10T01:35:41;100937.19;;;12.46;100.00
76024;BME280;64719;52.124;6.226;2023-05-10T01:38:16;100939.06;;;12.46;100.00
76024;BME280;64719;52.124;6.226;2023-05-10T01:40:51;100930.91;;;12.46;100.00
76024;BME280;64719;52.124;6.226;2023-05-10T01:43:23;100934.47;;;12.46;100.00
76024;BME280;64719;52.124;6.226;2023-05-10T01:46:01;100942.38;;;12.48;100.00
76024;BME280;64719;52.124;6.226;2023-05-10T01:48:37;100943.69;;;12.45;100.00
76024;BME280;64719;52.124;6.226;2023-05-10T01:51:09;100933.06;;;12.44;100.00
76024;BME280;64719;52.124;6.226;2023-05-10T01:53:37;100932.81;;;12.45;100.00
76024;BME280;64719;52.124;6.226;2023-05-10T01:56:06;100935.84;;;12.49;100.00
76024;BME280;64719;52.124;6.226;2023-05-10T01:58:36;100936.94;;;12.48;100.00
76024;BME280;64719;52.124;6.226;2023-05-10T02:01:06;100940.81;;;12.52;100.00
76024;BME280;64719;52.124;6.226;2023-05-10T02:03:36;100944.13;;;12.54;100.00
76024;BME280;64719;52.124;6.226;2023-05-10T02:06:05;100943.66;;;12.57;100.00
76024;BME280;64719;52.124;6.226;2023-05-10T02:08:38;100947.22;;;12.57;100.00
76024;BME280;64719;52.124;6.226;2023-05-10T02:11:06;100945.06;;;12.59;100.00
76024;BME280;64719;52.124;6.226;2023-05-10T02:13:35;100951.34;;;12.60;100.00
76024;BME280;64719;52.124;6.226;2023-05-10T02:16:05;100951.69;;;12.63;100.00
76024;BME280;64719;52.124;6.226;2023-05-10T02:18:32;100956.06;;;12.64;100.00
76024;BME280;64719;52.124;6.226;2023-05-10T02:21:02;100948.13;;;12.63;100.00
76024;BME280;64719;52.124;6.226;2023-05-10T02:23:29;100952.97;;;12.61;100.00
76024;BME280;64719;52.124;6.226;2023-05-10T02:25:56;100956.66;;;12.66;100.00
76024;BME280;64719;52.124;6.226;2023-05-10T02:28:25;100954.16;;;12.65;100.00
76024;BME280;64719;52.124;6.226;2023-05-10T02:30:53;100956.88;;;12.65;100.00
76024;BME280;64719;52.124;6.226;2023-05-10T02:33:21;100961.25;;;12.66;100.00
76024;BME280;64719;52.124;6.226;2023-05-10T02:35:48;100962.66;;;12.68;100.00
76024;BME280;64719;52.124;6.226;2023-05-10T02:38:18;100954.72;;;12.67;100.00
76024;BME280;64719;52.124;6.226;2023-05-10T02:40:47;100964.88;;;12.71;100.00
76024;BME280;64719;52.124;6.226;2023-05-10T02:43:15;100957.81;;;12.70;100.00
76024;BME280;64719;52.124;6.226;2023-05-10T02:45:43;100956.97;;;12.70;100.00
76024;BME280;64719;52.124;6.226;2023-05-10T02:48:13;100959.94;;;12.68;100.00
76024;BME280;64719;52.124;6.226;2023-05-10T02:50:42;100954.47;;;12.68;100.00
76024;BME280;64719;52.124;6.226;2023-05-10T02:53:15;100959.69;;;12.70;100.00
76024;BME280;64719;52.124;6.226;2023-05-10T02:55:45;100963.97;;;12.66;100.00
76024;BME280;64719;52.124;6.226;2023-05-10T02:58:15;100960.53;;;12.70;100.00
76024;BME280;64719;52.124;6.226;2023-05-10T03:00:44;100960.53;;;12.70;100.00
76024;BME280;64719;52.124;6.226;2023-05-10T03:03:11;100967.84;;;12.70;100.00
76024;BME280;64719;52.124;6.226;2023-05-10T03:05:37;100964.31;;;12.69;100.00
76024;BME280;64719;52.124;6.226;2023-05-10T03:08:04;100959.69;;;12.70;100.00
76024;BME280;64719;52.124;6.226;2023-05-10T03:10:32;100958.66;;;12.71;100.00
76024;BME280;64719;52.124;6.226;2023-05-10T03:13:13;100961.59;;;12.69;100.00
76024;BME280;64719;52.124;6.226;2023-05-10T03:15:47;100964.56;;;12.68;100.00
76024;BME280;64719;52.124;6.226;2023-05-10T03:18:18;100955.09;;;12.70;100.00
76024;BME280;64719;52.124;6.226;2023-05-10T03:20:48;100961.38;;;12.71;100.00
76024;BME280;64719;52.124;6.226;2023-05-10T03:23:21;100963.00;;;12.72;100.00
76024;BME280;64719;52.124;6.226;2023-05-10T03:25:50;100970.94;;;12.73;100.00
76024;BME280;64719;52.124;6.226;2023-05-10T03:28:18;100971.78;;;12.74;100.00
76024;BME280;64719;52.124;6.226;2023-05-10T03:30:46;100971.19;;;12.72;100.00
76024;BME280;64719;52.124;6.226;2023-05-10T03:33:13;100974.25;;;12.75;100.00
76024;BME280;64719;52.124;6.226;2023-05-10T03:35:40;100969.84;;;12.74;100.00
76024;BME280;64719;52.124;6.226;2023-05-10T03:38:06;100969.84;;;12.74;100.00
76024;BME280;64719;52.124;6.226;2023-05-10T03:40:33;100973.91;;;12.72;100.00
76024;BME280;64719;52.124;6.226;2023-05-10T03:42:59;100977.22;;;12.74;100.00
76024;BME280;64719;52.124;6.226;2023-05-10T03:45:27;100986.44;;;12.73;100.00
76024;BME280;64719;52.124;6.226;2023-05-10T03:47:54;100982.66;;;12.74;100.00
76024;BME280;64719;52.124;6.226;2023-05-10T03:50:20;100981.81;;;12.73;100.00
76024;BME280;64719;52.124;6.226;2023-05-10T03:52:47;100978.03;;;12.74;100.00
76024;BME280;64719;52.124;6.226;2023-05-10T03:55:13;100984.31;;;12.75;100.00
76024;BME280;64719;52.124;6.226;2023-05-10T03:57:40;100982.06;;;12.72;100.00
76024;BME280;64719;52.124;6.226;2023-05-10T04:00:07;100988.59;;;12.71;100.00
76024;BME280;64719;52.124;6.226;2023-05-10T04:02:36;100991.63;;;12.74;100.00
76024;BME280;64719;52.124;6.226;2023-05-10T04:05:02;100994.34;;;12.74;100.00
76024;BME280;64719;52.124;6.226;2023-05-10T04:07:29;100996.03;;;12.75;100.00
76024;BME280;64719;52.124;6.226;2023-05-10T04:09:55;100996.59;;;12.77;100.00
76024;BME280;64719;52.124;6.226;2023-05-10T04:12:22;100991.16;;;12.77;100.00
76024;BME280;64719;52.124;6.226;2023-05-10T04:14:48;101002.03;;;12.77;100.00
76024;BME280;64719;52.124;6.226;2023-05-10T04:17:16;101003.97;;;12.77;100.00
76024;BME280;64719;52.124;6.226;2023-05-10T04:19:43;101003.97;;;12.77;100.00
76024;BME280;64719;52.124;6.226;2023-05-10T04:22:10;100998.28;;;12.78;100.00
76024;BME280;64719;52.124;6.226;2023-05-10T04:24:36;100998.03;;;12.80;100.00
76024;BME280;64719;52.124;6.226;2023-05-10T04:27:03;101001.56;;;12.80;100.00
76024;BME280;64719;52.124;6.226;2023-05-10T04:29:29;101000.50;;;12.81;100.00
76024;BME280;64719;52.124;6.226;2023-05-10T04:31:56;101007.59;;;12.82;100.00
76024;BME280;64719;52.124;6.226;2023-05-10T04:34:23;101010.09;;;12.84;100.00
76024;BME280;64719;52.124;6.226;2023-05-10T04:36:50;101010.78;;;12.91;100.00
76024;BME280;64719;52.124;6.226;2023-05-10T04:39:17;101003.28;;;12.98;100.00
76024;BME280;64719;52.124;6.226;2023-05-10T04:41:43;101009.19;;;13.07;100.00
76024;BME280;64719;52.124;6.226;2023-05-10T04:44:10;101011.09;;;13.06;100.00
76024;BME280;64719;52.124;6.226;2023-05-10T04:46:36;101006.47;;;13.07;100.00
76024;BME280;64719;52.124;6.226;2023-05-10T04:49:03;101008.88;;;13.03;100.00
76024;BME280;64719;52.124;6.226;2023-05-10T04:51:29;101015.75;;;12.94;100.00
76024;BME280;64719;52.124;6.226;2023-05-10T04:53:58;101024.72;;;12.94;100.00
76024;BME280;64719;52.124;6.226;2023-05-10T04:56:24;101023.91;;;12.94;100.00
76024;BME280;64719;52.124;6.226;2023-05-10T04:58:51;101029.84;;;12.91;100.00
76024;BME280;64719;52.124;6.226;2023-05-10T05:01:17;101015.50;;;12.96;100.00
76024;BME280;64719;52.124;6.226;2023-05-10T05:03:44;101016.31;;;12.96;100.00
76024;BME280;64719;52.124;6.226;2023-05-10T05:06:10;101020.94;;;12.96;100.00
76024;BME280;64719;52.124;6.226;2023-05-10T05:08:37;101030.19;;;12.94;100.00
76024;BME280;64719;52.124;6.226;2023-05-10T05:11:04;101039.19;;;12.95;100.00
76024;BME280;64719;52.124;6.226;2023-05-10T05:13:31;101033.50;;;12.97;100.00
76024;BME280;64719;52.124;6.226;2023-05-10T05:16:00;101042.41;;;12.92;100.00
76024;BME280;64719;52.124;6.226;2023-05-10T05:18:26;101037.19;;;12.90;100.00
76024;BME280;64719;52.124;6.226;2023-05-10T05:20:53;101040.03;;;12.84;100.00
76024;BME280;64719;52.124;6.226;2023-05-10T05:23:19;101041.56;;;12.91;100.00
76024;BME280;64719;52.124;6.226;2023-05-10T05:25:50;101041.72;;;12.85;100.00
76024;BME280;64719;52.124;6.226;2023-05-10T05:28:18;101043.22;;;12.93;100.00
76024;BME280;64719;52.124;6.226;2023-05-10T05:30:45;101041.91;;;12.95;100.00
76024;BME280;64719;52.124;6.226;2023-05-10T05:33:13;101047.59;;;12.93;100.00
76024;BME280;64719;52.124;6.226;2023-05-10T05:35:40;101047.84;;;12.92;100.00
76024;BME280;64719;52.124;6.226;2023-05-10T05:38:08;101052.94;;;12.88;100.00
76024;BME280;64719;52.124;6.226;2023-05-10T05:40:34;101050.22;;;13.00;100.00
76024;BME280;64719;52.124;6.226;2023-05-10T05:43:01;101054.09;;;13.04;100.00
76024;BME280;64719;52.124;6.226;2023-05-10T05:45:28;101053.25;;;13.04;100.00
76024;BME280;64719;52.124;6.226;2023-05-10T05:47:55;101054.28;;;13.14;100.00
76024;BME280;64719;52.124;6.226;2023-05-10T05:50:21;101053.56;;;13.19;100.00
76024;BME280;64719;52.124;6.226;2023-05-10T05:52:48;101059.72;;;13.26;100.00
76024;BME280;64719;52.124;6.226;2023-05-10T05:55:14;101061.59;;;13.25;100.00
76024;BME280;64719;52.124;6.226;2023-05-10T05:57:41;101063.59;;;13.30;100.00
76024;BME280;64719;52.124;6.226;2023-05-10T06:00:08;101068.81;;;13.31;100.00
76024;BME280;64719;52.124;6.226;2023-05-10T06:02:36;101068.22;;;13.29;100.00
76024;BME280;64719;52.124;6.226;2023-05-10T06:05:03;101062.56;;;13.19;100.00
76024;BME280;64719;52.124;6.226;2023-05-10T06:07:30;101071.34;;;13.21;100.00
76024;BME280;64719;52.124;6.226;2023-05-10T06:09:57;101071.38;;;13.38;100.00
76024;BME280;64719;52.124;6.226;2023-05-10T06:12:23;101060.47;;;13.38;100.00
76024;BME280;64719;52.124;6.226;2023-05-10T06:14:50;101065.28;;;13.47;100.00
76024;BME280;64719;52.124;6.226;2023-05-10T06:17:16;101059.75;;;13.42;100.00
76024;BME280;64719;52.124;6.226;2023-05-10T06:19:44;101064.72;;;13.62;100.00
76024;BME280;64719;52.124;6.226;2023-05-10T06:22:11;101067.53;;;14.00;100.00
76024;BME280;64719;52.124;6.226;2023-05-10T06:24:37;101068.97;;;14.35;100.00
76024;BME280;64719;52.124;6.226;2023-05-10T06:27:04;101071.31;;;14.27;100.00
76024;BME280;64719;52.124;6.226;2023-05-10T06:29:30;101078.16;;;14.29;100.00
76024;BME280;64719;52.124;6.226;2023-05-10T06:31:57;101077.56;;;14.11;100.00
76024;BME280;64719;52.124;6.226;2023-05-10T06:34:23;101077.81;;;13.93;100.00
76024;BME280;64719;52.124;6.226;2023-05-10T06:36:51;101073.69;;;13.74;100.00
76024;BME280;64719;52.124;6.226;2023-05-10T06:39:18;101079.25;;;13.51;100.00
76024;BME280;64719;52.124;6.226;2023-05-10T06:41:45;101089.97;;;13.41;100.00
76024;BME280;64719;52.124;6.226;2023-05-10T06:44:11;101089.38;;;13.39;100.00
76024;BME280;64719;52.124;6.226;2023-05-10T06:46:38;101093.50;;;13.41;100.00
76024;BME280;64719;52.124;6.226;2023-05-10T06:49:04;101092.78;;;13.46;100.00
76024;BME280;64719;52.124;6.226;2023-05-10T06:51:31;101096.34;;;13.46;100.00
76024;BME280;64719;52.124;6.226;2023-05-10T06:53:59;101091.06;;;13.56;100.00
76024;BME280;64719;52.124;6.226;2023-05-10T06:56:26;101099.75;;;13.70;100.00
76024;BME280;64719;52.124;6.226;2023-05-10T06:58:53;101098.22;;;13.74;100.00
76024;BME280;64719;52.124;6.226;2023-05-10T07:01:19;101101.94;;;13.68;100.00
76024;BME280;64719;52.124;6.226;2023-05-10T07:03:45;101102.59;;;13.75;100.00
76024;BME280;64719;52.124;6.226;2023-05-10T07:06:12;101096.06;;;13.92;100.00
76024;BME280;64719;52.124;6.226;2023-05-10T07:08:38;101102.69;;;13.80;100.00
76024;BME280;64719;52.124;6.226;2023-05-10T07:11:06;101097.03;;;13.70;100.00
76024;BME280;64719;52.124;6.226;2023-05-10T07:13:33;101106.06;;;13.70;100.00
76024;BME280;64719;52.124;6.226;2023-05-10T07:16:01;101109.13;;;13.74;100.00
76024;BME280;64719;52.124;6.226;2023-05-10T07:18:28;101117.84;;;13.59;100.00
76024;BME280;64719;52.124;6.226;2023-05-10T07:20:54;101118.09;;;13.58;100.00
76024;BME280;64719;52.124;6.226;2023-05-10T07:23:21;101120.38;;;13.49;100.00
76024;BME280;64719;52.124;6.226;2023-05-10T07:25:48;101121.50;;;13.37;100.00
76024;BME280;64719;52.124;6.226;2023-05-10T07:28:16;101126.16;;;13.36;100.00
76024;BME280;64719;52.124;6.226;2023-05-10T07:30:43;101133.13;;;13.32;100.00
76024;BME280;64719;52.124;6.226;2023-05-10T07:33:11;101133.72;;;13.34;100.00
76024;BME280;64719;52.124;6.226;2023-05-10T07:35:38;101134.09;;;13.38;100.00
76024;BME280;64719;52.124;6.226;2023-05-10T07:38:05;101137.19;;;13.30;100.00
76024;BME280;64719;52.124;6.226;2023-05-10T07:40:31;101134.47;;;13.30;100.00
76024;BME280;64719;52.124;6.226;2023-05-10T07:42:58;101141.66;;;13.36;100.00
76024;BME280;64719;52.124;6.226;2023-05-10T07:45:27;101143.00;;;13.33;100.00
76024;BME280;64719;52.124;6.226;2023-05-10T07:47:54;101144.03;;;13.32;100.00
76024;BME280;64719;52.124;6.226;2023-05-10T07:50:20;101144.03;;;13.32;100.00
76024;BME280;64719;52.124;6.226;2023-05-10T07:52:47;101143.22;;;13.32;100.00
76024;BME280;64719;52.124;6.226;2023-05-10T07:55:14;101148.56;;;13.27;100.00
76024;BME280;64719;52.124;6.226;2023-05-10T07:57:41;101152.81;;;13.34;100.00
76024;BME280;64719;52.124;6.226;2023-05-10T08:00:09;101155.69;;;13.56;100.00
76024;BME280;64719;52.124;6.226;2023-05-10T08:02:40;101158.41;;;13.84;100.00
76024;BME280;64719;52.124;6.226;2023-05-10T08:05:07;101158.03;;;14.08;100.00
76024;BME280;64719;52.124;6.226;2023-05-10T08:07:34;101155.22;;;14.20;100.00
76024;BME280;64719;52.124;6.226;2023-05-10T08:10:00;101162.59;;;14.19;100.00
76024;BME280;64719;52.124;6.226;2023-05-10T08:12:27;101161.94;;;14.29;100.00
76024;BME280;64719;52.124;6.226;2023-05-10T08:14:53;101164.63;;;14.12;100.00
76024;BME280;64719;52.124;6.226;2023-05-10T08:17:19;101163.41;;;14.20;100.00
76024;BME280;64719;52.124;6.226;2023-05-10T08:19:47;101160.56;;;14.26;100.00
76024;BME280;64719;52.124;6.226;2023-05-10T08:22:14;101169.38;;;14.33;100.00
76024;BME280;64719;52.124;6.226;2023-05-10T08:24:40;101165.84;;;14.49;100.00
76024;BME280;64719;52.124;6.226;2023-05-10T08:27:07;101161.09;;;14.78;100.00
76024;BME280;64719;52.124;6.226;2023-05-10T08:29:34;101174.53;;;14.46;100.00
76024;BME280;64719;52.124;6.226;2023-05-10T08:32:00;101170.13;;;14.45;100.00
76024;BME280;64719;52.124;6.226;2023-05-10T08:34:27;101170.56;;;14.37;100.00
76024;BME280;64719;52.124;6.226;2023-05-10T08:36:55;101173.16;;;13.99;100.00
76024;BME280;64719;52.124;6.226;2023-05-10T08:39:21;101175.63;;;13.73;100.00
76024;BME280;64719;52.124;6.226;2023-05-10T08:41:50;101178.44;;;14.06;100.00
76024;BME280;64719;52.124;6.226;2023-05-10T08:44:17;101177.53;;;14.83;100.00
76024;BME280;64719;52.124;6.226;2023-05-10T08:46:46;101175.47;;;15.12;100.00
76024;BME280;64719;52.124;6.226;2023-05-10T08:49:16;101182.75;;;14.85;100.00
76024;BME280;64719;52.124;6.226;2023-05-10T08:51:48;101188.19;;;15.23;99.83
76024;BME280;64719;52.124;6.226;2023-05-10T08:54:17;101194.03;;;15.48;97.81
76024;BME280;64719;52.124;6.226;2023-05-10T08:56:44;101199.22;;;14.90;97.32
76024;BME280;64719;52.124;6.226;2023-05-10T08:59:10;101200.28;;;15.05;97.16
76024;BME280;64719;52.124;6.226;2023-05-10T09:01:39;101206.31;;;15.29;98.34
76024;BME280;64719;52.124;6.226;2023-05-10T09:04:06;101208.97;;;15.02;97.95
76024;BME280;64719;52.124;6.226;2023-05-10T09:06:33;101208.69;;;14.65;97.94
76024;BME280;64719;52.124;6.226;2023-05-10T09:09:00;101213.97;;;14.89;98.01
76024;BME280;64719;52.124;6.226;2023-05-10T09:11:30;101210.56;;;14.82;97.00
76024;BME280;64719;52.124;6.226;2023-05-10T09:13:57;101215.94;;;14.93;97.70
76024;BME280;64719;52.124;6.226;2023-05-10T09:16:23;101214.91;;;15.16;96.29
76024;BME280;64719;52.124;6.226;2023-05-10T09:18:50;101224.06;;;14.88;96.45
76024;BME280;64719;52.124;6.226;2023-05-10T09:21:16;101225.81;;;14.44;97.38
76024;BME280;64719;52.124;6.226;2023-05-10T09:23:43;101235.50;;;14.35;96.87
76024;BME280;64719;52.124;6.226;2023-05-10T09:26:10;101238.66;;;14.60;97.50
76024;BME280;64719;52.124;6.226;2023-05-10T09:28:50;101242.97;;;14.73;95.82
76024;BME280;64719;52.124;6.226;2023-05-10T09:31:17;101236.16;;;14.76;94.21
76024;BME280;64719;52.124;6.226;2023-05-10T09:33:44;101238.47;;;14.84;93.69
76024;BME280;64719;52.124;6.226;2023-05-10T09:36:11;101247.22;;;15.57;92.78
76024;BME280;64719;52.124;6.226;2023-05-10T09:38:45;101239.47;;;16.23;89.76
76024;BME280;64719;52.124;6.226;2023-05-10T09:41:16;101245.25;;;16.54;85.92
76024;BME280;64719;52.124;6.226;2023-05-10T09:43:42;101247.34;;;16.73;85.71
76024;BME280;64719;52.124;6.226;2023-05-10T09:46:10;101254.53;;;16.79;83.99
76024;BME280;64719;52.124;6.226;2023-05-10T09:48:39;101255.09;;;16.23;86.38
76024;BME280;64719;52.124;6.226;2023-05-10T09:51:07;101259.69;;;16.44;87.10
76024;BME280;64719;52.124;6.226;2023-05-10T09:53:34;101264.06;;;16.18;87.93
76024;BME280;64719;52.124;6.226;2023-05-10T09:56:00;101267.63;;;15.92;87.92
76024;BME280;64719;52.124;6.226;2023-05-10T09:58:27;101264.38;;;15.95;87.23
76024;BME280;64719;52.124;6.226;2023-05-10T10:00:53;101270.31;;;15.66;85.72
76024;BME280;64719;52.124;6.226;2023-05-10T10:03:21;101256.28;;;16.32;85.65
76024;BME280;64719;52.124;6.226;2023-05-10T10:05:49;101264.81;;;16.67;84.35
76024;BME280;64719;52.124;6.226;2023-05-10T10:08:17;101257.66;;;16.34;81.71
76024;BME280;64719;52.124;6.226;2023-05-10T10:10:44;101264.69;;;16.25;81.08
76024;BME280;64719;52.124;6.226;2023-05-10T10:13:11;101263.25;;;16.44;83.18
76024;BME280;64719;52.124;6.226;2023-05-10T10:15:38;101271.94;;;16.36;82.17
76024;BME280;64719;52.124;6.226;2023-05-10T10:18:05;101279.31;;;16.36;84.18
76024;BME280;64719;52.124;6.226;2023-05-10T10:20:33;101277.09;;;16.33;83.97
76024;BME280;64719;52.124;6.226;2023-05-10T10:22:59;101274.53;;;16.00;84.67
76024;BME280;64719;52.124;6.226;2023-05-10T10:25:25;101282.47;;;16.23;84.86
76024;BME280;64719;52.124;6.226;2023-05-10T10:28:15;101279.38;;;16.41;83.35
76024;BME280;64719;52.124;6.226;2023-05-10T10:30:46;101275.13;;;16.55;82.07
76024;BME280;64719;52.124;6.226;2023-05-10T10:33:40;101271.13;;;16.68;82.31
76024;BME280;64719;52.124;6.226;2023-05-10T10:36:15;101272.91;;;19.98;73.12
76024;BME280;64719;52.124;6.226;2023-05-10T10:38:55;101267.72;;;22.06;63.41
76024;BME280;64719;52.124;6.226;2023-05-10T10:41:32;101274.03;;;22.30;63.07
76024;BME280;64719;52.124;6.226;2023-05-10T10:44:24;101273.16;;;20.01;65.71
76024;BME280;64719;52.124;6.226;2023-05-10T10:47:05;101276.22;;;18.81;70.81
76024;BME280;64719;52.124;6.226;2023-05-10T10:49:41;101271.50;;;18.36;74.69
76024;BME280;64719;52.124;6.226;2023-05-10T10:52:21;101277.25;;;18.30;75.23
76024;BME280;64719;52.124;6.226;2023-05-10T10:54:51;101275.81;;;18.07;76.00
76024;BME280;64719;52.124;6.226;2023-05-10T10:57:19;101271.25;;;18.88;71.99
76024;BME280;64719;52.124;6.226;2023-05-10T10:59:47;101276.63;;;18.12;73.08
76024;BME280;64719;52.124;6.226;2023-05-10T11:02:34;101272.19;;;20.69;66.28
76024;BME280;64719;52.124;6.226;2023-05-10T11:05:23;101281.16;;;19.04;72.12
76024;BME280;64719;52.124;6.226;2023-05-10T11:07:53;101286.66;;;19.34;69.95
76024;BME280;64719;52.124;6.226;2023-05-10T11:10:20;101289.97;;;17.74;72.63
76024;BME280;64719;52.124;6.226;2023-05-10T11:12:53;101298.22;;;18.71;71.17
76024;BME280;64719;52.124;6.226;2023-05-10T11:15:29;101297.50;;;16.74;75.16
76024;BME280;64719;52.124;6.226;2023-05-10T11:17:56;101298.63;;;17.51;75.25
76024;BME280;64719;52.124;6.226;2023-05-10T11:20:23;101297.66;;;16.94;77.15
76024;BME280;64719;52.124;6.226;2023-05-10T11:22:55;101299.13;;;16.70;77.25
76024;BME280;64719;52.124;6.226;2023-05-10T11:25:26;101305.59;;;16.90;77.20
76024;BME280;64719;52.124;6.226;2023-05-10T11:27:53;101306.56;;;16.48;78.03
76024;BME280;64719;52.124;6.226;2023-05-10T11:30:19;101312.50;;;15.91;80.24
76024;BME280;64719;52.124;6.226;2023-05-10T11:32:46;101308.59;;;16.35;79.55
76024;BME280;64719;52.124;6.226;2023-05-10T11:35:22;101297.91;;;16.34;79.31
76024;BME280;64719;52.124;6.226;2023-05-10T11:37:48;101307.94;;;16.23;79.66
76024;BME280;64719;52.124;6.226;2023-05-10T11:40:17;101310.97;;;16.27;79.05
76024;BME280;64719;52.124;6.226;2023-05-10T11:42:44;101311.34;;;16.35;79.19
76024;BME280;64719;52.124;6.226;2023-05-10T11:45:11;101311.53;;;16.51;77.83
76024;BME280;64719;52.124;6.226;2023-05-10T11:47:38;101316.03;;;16.62;76.78
76024;BME280;64719;52.124;6.226;2023-05-10T11:50:06;101310.81;;;16.92;75.71
76024;BME280;64719;52.124;6.226;2023-05-10T11:52:35;101314.19;;;17.04;75.26
76024;BME280;64719;52.124;6.226;2023-05-10T11:55:02;101314.25;;;17.45;74.54
76024;BME280;64719;52.124;6.226;2023-05-10T11:57:30;101318.56;;;17.41;74.34
76024;BME280;64719;52.124;6.226;2023-05-10T11:59:57;101315.00;;;18.79;71.25
76024;BME280;64719;52.124;6.226;2023-05-10T12:02:24;101319.94;;;18.67;71.84
76024;BME280;64719;52.124;6.226;2023-05-10T12:04:51;101310.25;;;18.40;70.94
76024;BME280;64719;52.124;6.226;2023-05-10T12:07:18;101307.78;;;18.38;70.12
76024;BME280;64719;52.124;6.226;2023-05-10T12:09:48;101316.88;;;18.44;70.42
76024;BME280;64719;52.124;6.226;2023-05-10T12:12:37;101317.97;;;17.71;69.26
76024;BME280;64719;52.124;6.226;2023-05-10T12:15:05;101319.03;;;18.32;69.96
76024;BME280;64719;52.124;6.226;2023-05-10T12:17:32;101317.16;;;18.42;67.76
76024;BME280;64719;52.124;6.226;2023-05-10T12:19:59;101318.28;;;19.11;66.12
76024;BME280;64719;52.124;6.226;2023-05-10T12:22:38;101321.78;;;21.94;57.77
76024;BME280;64719;52.124;6.226;2023-05-10T12:25:06;101314.81;;;21.73;53.84
76024;BME280;64719;52.124;6.226;2023-05-10T12:27:35;101315.84;;;20.19;59.25
76024;BME280;64719;52.124;6.226;2023-05-10T12:30:02;101319.50;;;21.77;56.78
76024;BME280;64719;52.124;6.226;2023-05-10T12:32:39;101313.22;;;21.43;58.07
76024;BME280;64719;52.124;6.226;2023-05-10T12:35:06;101320.00;;;21.27;55.79
76024;BME280;64719;52.124;6.226;2023-05-10T12:37:33;101324.13;;;21.29;56.30
76024;BME280;64719;52.124;6.226;2023-05-10T12:40:05;101323.84;;;20.59;58.18
76024;BME280;64719;52.124;6.226;2023-05-10T12:42:33;101326.72;;;21.16;57.83
76024;BME280;64719;52.124;6.226;2023-05-10T12:45:02;101326.13;;;20.47;58.58
76024;BME280;64719;52.124;6.226;2023-05-10T12:47:29;101323.28;;;20.13;58.00
76024;BME280;64719;52.124;6.226;2023-05-10T12:49:55;101323.28;;;20.08;59.25